createdAt,value
2018-11-23T00:00:27.138Z,21.00
2018-11-23T00:02:56.038Z,17.90
2018-11-23T00:05:24.280Z,20.63
2018-11-23T00:07:52.886Z,20.03
2018-11-23T00:10:22.369Z,22.33
2018-11-23T00:12:50.557Z,22.63
2018-11-23T00:15:19.887Z,21.40
2018-11-23T00:17:48.102Z,21.73
2018-11-23T00:20:20.562Z,21.87
2018-11-23T00:22:49.676Z,21.20
2018-11-23T00:25:20.186Z,20.97
2018-11-23T00:27:48.671Z,23.37
2018-11-23T00:30:18.914Z,24.50
2018-11-23T00:32:47.439Z,22.40
2018-11-23T00:35:17.301Z,21.43
2018-11-23T00:37:45.881Z,23.93
2018-11-23T00:40:30.243Z,21.47
2018-11-23T00:42:58.789Z,20.30
2018-11-23T00:45:26.982Z,24.40
2018-11-23T00:47:55.889Z,19.40
2018-11-23T00:50:24.794Z,23.00
2018-11-23T00:52:53.741Z,22.37
2018-11-23T00:55:22.726Z,20.73
2018-11-23T00:57:50.939Z,20.87
2018-11-23T01:00:25.221Z,21.33
2018-11-23T01:02:53.826Z,21.23
2018-11-23T01:05:22.005Z,20.87
2018-11-23T01:07:50.168Z,23.77
2018-11-23T01:10:19.490Z,21.70
2018-11-23T01:12:48.578Z,19.57
2018-11-23T01:15:16.736Z,25.00
2018-11-23T01:17:44.952Z,21.67
2018-11-23T01:20:16.930Z,21.20
2018-11-23T01:22:45.193Z,23.20
2018-11-23T01:25:14.400Z,21.87
2018-11-23T01:27:43.377Z,21.07
2018-11-23T01:30:16.813Z,21.33
2018-11-23T01:32:45.241Z,22.43
2018-11-23T01:35:13.583Z,22.33
2018-11-23T01:37:42.085Z,21.37
2018-11-23T01:40:12.325Z,22.23
2018-11-23T01:42:41.198Z,20.27
2018-11-23T01:45:09.946Z,21.80
2018-11-23T01:47:38.088Z,22.40
2018-11-23T01:50:11.215Z,22.40
2018-11-23T01:52:39.449Z,21.73
2018-11-23T01:55:08.835Z,21.90
2018-11-23T01:57:37.512Z,20.90
2018-11-23T02:00:06.180Z,20.30
2018-11-23T02:02:34.394Z,20.30
2018-11-23T02:05:02.570Z,22.30
2018-11-23T02:07:30.719Z,22.97
2018-11-23T02:09:58.890Z,23.17
2018-11-23T02:12:27.068Z,22.33
2018-11-23T02:14:55.285Z,22.77
2018-11-23T02:17:24.177Z,21.70
2018-11-23T02:19:54.312Z,20.20
2018-11-23T02:22:22.466Z,22.23
2018-11-23T02:24:50.861Z,21.60
2018-11-23T02:27:19.061Z,23.97
2018-11-23T02:29:47.300Z,21.13
2018-11-23T02:32:15.489Z,20.10
2018-11-23T02:34:43.649Z,23.30
2018-11-23T02:37:11.838Z,22.47
2018-11-23T02:39:40.437Z,21.77
2018-11-23T02:42:08.601Z,23.50
2018-11-23T02:44:37.073Z,22.80
2018-11-23T02:47:05.457Z,21.90
2018-11-23T02:49:33.679Z,25.13
2018-11-23T02:52:01.852Z,20.60
2018-11-23T02:54:30.009Z,25.20
2018-11-23T02:56:58.176Z,24.80
2018-11-23T02:59:26.330Z,21.77
2018-11-23T03:01:54.504Z,20.47
2018-11-23T03:04:22.702Z,20.13
2018-11-23T03:06:50.886Z,20.93
2018-11-23T03:09:19.067Z,22.40
2018-11-23T03:11:47.286Z,24.17
2018-11-23T03:14:15.467Z,23.30
2018-11-23T03:16:43.642Z,21.00
2018-11-23T03:19:11.829Z,21.30
2018-11-23T03:21:40.012Z,21.40
2018-11-23T03:24:08.198Z,22.63
2018-11-23T03:26:36.403Z,26.30
2018-11-23T03:29:04.901Z,20.70
2018-11-23T03:31:33.061Z,21.77
2018-11-23T03:34:01.260Z,22.57
2018-11-23T03:36:29.434Z,20.80
2018-11-23T03:38:57.622Z,22.43
2018-11-23T03:41:25.815Z,22.63
2018-11-23T03:43:53.988Z,22.40
2018-11-23T03:46:22.160Z,24.20
2018-11-23T03:48:50.399Z,21.90
2018-11-23T03:51:18.584Z,20.53
2018-11-23T03:53:46.749Z,21.73
2018-11-23T03:56:14.946Z,22.43
2018-11-23T03:58:43.111Z,22.57
2018-11-23T04:01:11.316Z,22.80
2018-11-23T04:03:39.482Z,22.23
2018-11-23T04:06:07.744Z,21.90
2018-11-23T04:08:35.919Z,20.73
2018-11-23T04:11:04.081Z,21.20
2018-11-23T04:13:32.266Z,22.73
2018-11-23T04:16:00.456Z,20.60
2018-11-23T04:18:28.605Z,22.80
2018-11-23T04:21:03.580Z,19.57
2018-11-23T04:23:32.860Z,20.63
2018-11-23T04:26:01.155Z,21.00
2018-11-23T04:28:29.324Z,23.23
2018-11-23T04:30:57.494Z,22.07
2018-11-23T04:33:26.272Z,23.53
2018-11-23T04:35:54.698Z,21.20
2018-11-23T04:38:22.862Z,20.37
2018-11-23T04:40:51.081Z,23.67
2018-11-23T04:43:19.326Z,21.87
2018-11-23T04:45:47.491Z,20.50
2018-11-23T04:48:15.669Z,23.67
2018-11-23T04:50:43.894Z,21.43
2018-11-23T04:53:12.099Z,22.40
2018-11-23T04:55:40.322Z,21.70
2018-11-23T04:58:08.555Z,23.13
2018-11-23T05:00:36.751Z,22.37
2018-11-23T05:03:04.942Z,19.60
2018-11-23T05:05:33.132Z,21.20
2018-11-23T05:08:01.291Z,19.80
2018-11-23T05:10:29.462Z,20.43
2018-11-23T05:12:57.642Z,21.97
2018-11-23T05:15:25.827Z,20.90
2018-11-23T05:17:54.022Z,21.57
2018-11-23T05:20:22.223Z,21.27
2018-11-23T05:22:50.375Z,21.90
2018-11-23T05:25:19.390Z,20.80
2018-11-23T05:27:47.539Z,20.30
2018-11-23T05:30:17.864Z,19.90
2018-11-23T05:32:46.080Z,23.53
2018-11-23T05:35:15.227Z,21.60
2018-11-23T05:37:43.406Z,22.57
2018-11-23T05:40:13.640Z,23.23
2018-11-23T05:42:41.799Z,21.80
2018-11-23T05:45:12.513Z,21.77
2018-11-23T05:47:40.723Z,23.37
2018-11-23T05:50:13.080Z,23.40
2018-11-23T05:52:42.430Z,22.43
2018-11-23T05:55:11.081Z,22.87
2018-11-23T05:57:39.354Z,22.10
2018-11-23T06:00:10.234Z,23.90
2018-11-23T06:02:38.541Z,20.50
2018-11-23T06:05:07.280Z,23.97
2018-11-23T06:07:35.506Z,21.70
2018-11-23T06:10:04.139Z,19.70
2018-11-23T06:12:32.346Z,23.57
2018-11-23T06:15:00.500Z,22.90
2018-11-23T06:17:28.697Z,22.00
2018-11-23T06:19:56.869Z,21.30
2018-11-23T06:22:25.082Z,23.30
2018-11-23T06:24:53.276Z,22.33
2018-11-23T06:27:21.456Z,22.50
2018-11-23T06:29:49.648Z,21.80
2018-11-23T06:32:29.186Z,22.53
2018-11-23T06:34:57.373Z,21.63
2018-11-23T06:37:25.587Z,23.27
2018-11-23T06:39:53.897Z,23.33
2018-11-23T06:42:22.033Z,21.87
2018-11-23T06:44:50.190Z,22.17
2018-11-23T06:47:18.387Z,23.17
2018-11-23T06:49:46.614Z,24.10
2018-11-23T06:52:14.878Z,23.37
2018-11-23T06:54:43.142Z,22.07
2018-11-23T06:57:11.321Z,22.60
2018-11-23T06:59:39.482Z,22.30
2018-11-23T07:02:07.633Z,24.37
2018-11-23T07:04:36.038Z,21.27
2018-11-23T07:07:04.381Z,22.73
2018-11-23T07:09:32.625Z,21.57
2018-11-23T07:12:00.922Z,24.50
2018-11-23T07:14:29.092Z,20.43
2018-11-23T07:16:57.426Z,23.18
2018-11-23T07:19:26.086Z,22.43
2018-11-23T07:21:54.241Z,23.40
2018-11-23T07:24:22.459Z,23.90
2018-11-23T07:26:50.654Z,22.37
2018-11-23T07:29:18.848Z,22.83
2018-11-23T07:31:47.056Z,23.13
2018-11-23T07:34:15.325Z,23.03
2018-11-23T07:36:43.789Z,26.13
2018-11-23T07:39:23.720Z,23.37
2018-11-23T07:45:19.643Z,20.47
2018-11-23T07:47:47.860Z,22.37
2018-11-23T07:50:15.998Z,23.70
2018-11-23T07:52:44.263Z,25.73
2018-11-23T07:55:13.028Z,21.73
2018-11-23T07:57:41.657Z,24.33
2018-11-23T08:00:12.647Z,23.40
2018-11-23T08:02:42.145Z,21.50
2018-11-23T08:05:11.942Z,21.60
2018-11-23T08:07:40.661Z,23.13
2018-11-23T08:10:10.373Z,25.17
2018-11-23T08:12:39.175Z,23.53
2018-11-23T08:15:11.236Z,25.10
2018-11-23T08:17:40.353Z,24.07
2018-11-23T08:20:10.045Z,21.60
2018-11-23T08:22:38.499Z,22.10
2018-11-23T08:25:07.981Z,21.03
2018-11-23T08:27:36.342Z,20.73
2018-11-23T08:30:07.566Z,22.20
2018-11-23T08:32:36.118Z,22.40
2018-11-23T08:35:04.238Z,20.57
2018-11-23T08:37:32.418Z,22.73
2018-11-23T08:40:00.627Z,22.77
2018-11-23T08:42:28.903Z,23.03
2018-11-23T08:44:58.841Z,22.87
2018-11-23T08:47:27.064Z,22.77
2018-11-23T08:49:55.065Z,21.30
2018-11-23T08:52:23.422Z,23.37
2018-11-23T08:54:52.245Z,23.93
2018-11-23T08:57:20.403Z,24.40
2018-11-23T08:59:48.715Z,22.40
2018-11-23T09:02:16.871Z,22.43
2018-11-23T09:04:45.098Z,23.40
2018-11-23T09:07:13.368Z,23.73
2018-11-23T09:09:41.598Z,23.50
2018-11-23T09:12:09.888Z,23.10
2018-11-23T09:14:38.389Z,22.87
2018-11-23T09:17:06.609Z,24.77
2018-11-23T09:19:34.774Z,24.30
2018-11-23T09:22:03.101Z,23.00
2018-11-23T09:24:31.289Z,23.67
2018-11-23T09:26:59.780Z,21.57
2018-11-23T09:29:28.147Z,22.77
2018-11-23T09:31:56.737Z,23.10
2018-11-23T09:34:24.912Z,25.00
2018-11-23T09:36:53.378Z,23.53
2018-11-23T09:39:21.585Z,23.23
2018-11-23T09:41:49.761Z,22.03
2018-11-23T09:44:17.899Z,22.37
2018-11-23T09:46:46.382Z,21.93
2018-11-23T09:49:14.709Z,21.97
2018-11-23T09:51:42.874Z,22.00
2018-11-23T09:54:11.062Z,23.33
2018-11-23T09:56:40.349Z,24.73
2018-11-23T09:59:08.763Z,22.30
2018-11-23T10:01:36.947Z,24.23
2018-11-23T10:04:05.130Z,23.33
2018-11-23T10:06:33.509Z,23.20
2018-11-23T10:09:01.976Z,24.60
2018-11-23T10:11:30.230Z,23.97
2018-11-23T10:13:58.641Z,24.77
2018-11-23T10:16:26.813Z,22.70
2018-11-23T10:18:55.414Z,22.60
2018-11-23T10:21:24.584Z,25.03
2018-11-23T10:23:52.859Z,24.60
2018-11-23T10:26:21.184Z,24.20
2018-11-23T10:28:49.776Z,21.70
2018-11-23T10:31:17.994Z,24.67
2018-11-23T10:33:46.423Z,23.70
2018-11-23T10:36:20.900Z,22.60
2018-11-23T10:38:49.205Z,23.27
2018-11-23T10:41:18.015Z,23.97
2018-11-23T10:43:46.449Z,24.47
2018-11-23T10:46:14.651Z,26.20
2018-11-23T10:48:42.847Z,21.93
2018-11-23T10:51:11.226Z,22.40
2018-11-23T10:53:39.630Z,21.30
2018-11-23T10:56:07.882Z,21.60
2018-11-23T10:58:36.533Z,21.90
2018-11-23T11:01:10.197Z,22.47
2018-11-23T11:04:46.173Z,25.40
2018-11-23T11:07:14.695Z,23.40
2018-11-23T11:09:42.891Z,23.43
2018-11-23T11:12:11.189Z,19.60
2018-11-23T11:14:39.612Z,24.07
2018-11-23T11:17:07.646Z,21.70
2018-11-23T11:19:35.971Z,21.17
2018-11-23T11:22:04.545Z,20.10
2018-11-23T11:24:33.918Z,21.40
2018-11-23T11:27:02.126Z,21.30
2018-11-23T11:29:30.421Z,23.20
2018-11-23T11:31:58.647Z,21.33
2018-11-23T11:34:26.878Z,17.87
2018-11-23T11:36:55.178Z,19.35
2018-11-23T11:39:24.126Z,20.67
2018-11-23T11:41:52.559Z,22.07
2018-11-23T11:44:20.777Z,19.80
2018-11-23T11:46:49.013Z,20.57
2018-11-23T11:49:17.212Z,20.33
2018-11-23T11:51:45.577Z,20.53
2018-11-23T11:54:13.804Z,22.07
2018-11-23T11:56:42.195Z,21.43
2018-11-23T11:59:10.718Z,20.50
2018-11-23T12:01:39.216Z,18.90
2018-11-23T12:04:07.440Z,21.30
2018-11-23T12:06:35.595Z,20.97
2018-11-23T12:09:06.026Z,22.47
2018-11-23T12:11:34.199Z,20.77
2018-11-23T12:14:02.517Z,20.97
2018-11-23T12:16:30.710Z,21.20
2018-11-23T12:18:58.918Z,22.93
2018-11-23T12:21:27.118Z,22.20
2018-11-23T12:23:55.334Z,21.57
2018-11-23T12:26:23.525Z,18.77
2018-11-23T12:28:51.738Z,18.43
2018-11-23T12:31:19.929Z,20.20
2018-11-23T12:33:48.336Z,19.20
2018-11-23T12:36:16.501Z,20.00
2018-11-23T12:38:44.676Z,23.97
2018-11-23T12:41:12.858Z,19.10
2018-11-23T12:43:41.004Z,20.23
2018-11-23T12:46:09.289Z,20.70
2018-11-23T12:48:37.460Z,19.23
2018-11-23T12:51:07.290Z,19.87
2018-11-23T12:53:35.453Z,21.73
2018-11-23T12:56:03.654Z,18.87
2018-11-23T12:58:31.896Z,21.53
2018-11-23T13:01:00.116Z,18.82
2018-11-23T13:03:28.268Z,20.07
2018-11-23T13:05:56.450Z,18.90
2018-11-23T13:08:24.595Z,20.70
2018-11-23T13:10:52.754Z,20.23
2018-11-23T13:13:20.979Z,20.83
2018-11-23T13:15:49.257Z,19.60
2018-11-23T13:18:17.533Z,20.40
2018-11-23T13:20:45.710Z,21.10
2018-11-23T13:23:13.958Z,19.67
2018-11-23T13:25:42.143Z,18.80
2018-11-23T13:28:10.514Z,19.13
2018-11-23T13:30:38.684Z,18.87
2018-11-23T13:33:06.973Z,21.10
2018-11-23T13:35:35.210Z,19.97
2018-11-23T13:38:03.381Z,18.67
2018-11-23T13:40:31.980Z,19.67
2018-11-23T13:43:00.981Z,19.80
2018-11-23T13:45:30.659Z,21.47
2018-11-23T13:47:59.261Z,19.60
2018-11-23T13:50:27.929Z,18.23
2018-11-23T13:52:57.730Z,17.87
2018-11-23T13:55:25.973Z,20.10
2018-11-23T13:57:54.309Z,17.80
2018-11-23T14:00:23.993Z,18.20
2018-11-23T14:02:52.183Z,17.23
2018-11-23T14:05:21.713Z,18.10
2018-11-23T14:07:54.072Z,17.90
2018-11-23T14:10:23.481Z,17.30
2018-11-23T14:12:51.659Z,15.80
2018-11-23T14:15:22.016Z,18.27
2018-11-23T14:17:51.038Z,17.17
2018-11-23T14:20:19.819Z,18.23
2018-11-23T14:22:49.807Z,19.03
2018-11-23T14:25:19.358Z,16.70
2018-11-23T14:27:47.945Z,16.33
2018-11-23T14:30:18.313Z,19.30
2018-11-23T14:32:46.765Z,16.53
2018-11-23T14:35:17.509Z,18.47
2018-11-23T14:37:46.511Z,16.60
2018-11-23T14:40:15.120Z,16.10
2018-11-23T14:42:44.319Z,18.00
2018-11-23T14:45:20.526Z,17.90
2018-11-23T14:47:49.506Z,16.80
2018-11-23T14:50:19.622Z,16.20
2018-11-23T14:52:49.085Z,30.17
2018-11-23T14:55:17.785Z,19.60
2018-11-23T14:57:46.286Z,17.50
2018-11-23T15:00:22.796Z,21.33
2018-11-23T15:02:52.225Z,22.27
2018-11-23T15:05:20.789Z,17.43
2018-11-23T15:07:49.370Z,16.20
2018-11-23T15:10:22.018Z,17.20
2018-11-23T15:12:53.536Z,19.17
2018-11-23T15:15:23.089Z,19.67
2018-11-23T15:17:51.988Z,20.73
2018-11-23T15:20:26.298Z,18.87
2018-11-23T15:22:57.011Z,17.40
2018-11-23T15:25:25.243Z,19.17
2018-11-23T15:27:53.706Z,16.67
2018-11-23T15:30:24.623Z,16.13
2018-11-23T15:32:52.890Z,17.93
2018-11-23T15:35:22.009Z,18.90
2018-11-23T15:37:50.233Z,17.80
2018-11-23T15:40:20.962Z,17.33
2018-11-23T15:42:49.978Z,18.63
2018-11-23T15:45:22.173Z,21.90
2018-11-23T15:47:50.486Z,16.70
2018-11-23T15:50:23.188Z,17.90
2018-11-23T15:52:51.362Z,18.73
2018-11-23T15:55:22.009Z,17.53
2018-11-23T15:57:51.565Z,18.60
2018-11-23T16:00:22.326Z,16.73
2018-11-23T16:02:51.007Z,17.50
2018-11-23T16:05:19.731Z,17.93
2018-11-23T16:07:48.174Z,18.13
2018-11-23T16:10:19.641Z,18.27
2018-11-23T16:12:48.956Z,18.90
2018-11-23T16:15:17.848Z,19.27
2018-11-23T16:17:46.163Z,18.30
2018-11-23T16:20:22.169Z,18.00
2018-11-23T16:22:52.558Z,19.07
2018-11-23T16:25:20.818Z,17.83
2018-11-23T16:27:50.510Z,19.30
2018-11-23T16:30:20.845Z,18.77
2018-11-23T16:32:50.142Z,18.90
2018-11-23T16:35:19.585Z,19.40
2018-11-23T16:37:47.934Z,17.80
2018-11-23T16:40:17.607Z,17.27
2018-11-23T16:42:45.821Z,17.97
2018-11-23T16:45:16.560Z,18.27
2018-11-23T16:47:45.645Z,16.83
2018-11-23T16:50:14.041Z,16.97
2018-11-23T16:52:44.707Z,18.40
2018-11-23T16:55:13.924Z,17.70
2018-11-23T16:57:43.313Z,17.43
2018-11-23T17:00:13.249Z,16.63
2018-11-23T17:02:42.197Z,16.73
2018-11-23T17:05:11.260Z,17.50
2018-11-23T17:07:39.513Z,16.80
2018-11-23T17:10:11.182Z,16.27
2018-11-23T17:12:39.763Z,17.80
2018-11-23T17:15:09.274Z,15.40
2018-11-23T17:17:37.734Z,16.27
2018-11-23T17:20:07.650Z,18.70
2018-11-23T17:22:35.904Z,17.53
2018-11-23T17:25:05.772Z,17.42
2018-11-23T17:27:33.948Z,17.03
2018-11-23T17:30:02.260Z,18.73
2018-11-23T17:32:30.796Z,17.70
2018-11-23T17:34:59.151Z,17.20
2018-11-23T17:37:27.359Z,16.40
2018-11-23T17:39:55.959Z,15.80
2018-11-23T17:42:24.677Z,15.77
2018-11-23T17:44:53.056Z,14.67
2018-11-23T17:47:21.290Z,17.93
2018-11-23T17:49:49.814Z,17.53
2018-11-23T17:52:18.305Z,18.87
2018-11-23T17:54:46.619Z,17.30
2018-11-23T17:57:15.499Z,17.87
2018-11-23T17:59:48.170Z,18.73
2018-11-23T18:02:18.990Z,17.07
2018-11-23T18:04:48.664Z,16.53
2018-11-23T18:07:17.464Z,17.90
2018-11-23T18:09:46.209Z,19.83
2018-11-23T18:12:15.609Z,19.00
2018-11-23T18:14:43.648Z,18.53
2018-11-23T18:17:12.013Z,18.30
2018-11-23T18:19:40.789Z,17.93
2018-11-23T18:22:09.783Z,19.50
2018-11-23T18:24:38.051Z,18.73
2018-11-23T18:27:06.437Z,16.43
2018-11-23T18:29:34.911Z,20.27
2018-11-23T18:32:03.062Z,17.40
2018-11-23T18:34:31.275Z,18.70
2018-11-23T18:36:59.538Z,19.70
2018-11-23T18:39:27.768Z,18.50
2018-11-23T18:41:55.992Z,18.67
2018-11-23T18:44:24.229Z,18.43
2018-11-23T18:46:52.487Z,19.00
2018-11-23T18:49:20.649Z,18.07
2018-11-23T18:51:48.956Z,18.50
2018-11-23T18:54:17.203Z,19.43
2018-11-23T18:56:45.364Z,17.10
2018-11-23T18:59:14.209Z,20.77
2018-11-23T19:01:42.612Z,17.43
2018-11-23T19:04:10.852Z,18.37
2018-11-23T19:06:39.080Z,17.33
2018-11-23T19:09:09.604Z,16.77
2018-11-23T19:11:37.861Z,17.53
2018-11-23T19:14:06.609Z,17.30
2018-11-23T19:16:34.842Z,18.70
2018-11-23T19:19:03.066Z,18.10
2018-11-23T19:21:31.263Z,19.73
2018-11-23T19:23:59.636Z,17.40
2018-11-23T19:26:27.849Z,17.90
2018-11-23T19:28:56.112Z,16.43
2018-11-23T19:31:24.877Z,19.20
2018-11-23T19:33:59.088Z,20.87
2018-11-23T19:36:21.729Z,16.60
2018-11-23T19:38:50.541Z,15.80
2018-11-23T19:41:18.679Z,19.40
2018-11-23T19:43:47.033Z,17.37
2018-11-23T19:46:15.270Z,16.20
2018-11-23T19:48:43.500Z,17.70
2018-11-23T19:51:11.714Z,17.87
2018-11-23T19:53:41.135Z,18.10
2018-11-23T19:56:09.360Z,19.07
2018-11-23T19:58:37.609Z,18.43
2018-11-23T20:01:06.218Z,20.77
2018-11-23T20:03:34.490Z,16.80
2018-11-23T20:06:02.741Z,19.50
2018-11-23T20:08:31.146Z,17.80
2018-11-23T20:10:59.359Z,20.00
2018-11-23T20:13:27.549Z,18.23
2018-11-23T20:15:55.826Z,18.80
2018-11-23T20:18:24.037Z,18.90
2018-11-23T20:20:52.383Z,19.43
2018-11-23T20:23:20.557Z,17.57
2018-11-23T20:28:23.492Z,19.03
2018-11-23T20:30:51.788Z,19.63
2018-11-23T20:33:20.035Z,17.37
2018-11-23T20:35:48.207Z,17.27
2018-11-23T20:38:16.398Z,19.20
2018-11-23T20:40:44.808Z,19.63
2018-11-23T20:43:13.050Z,16.97
2018-11-23T20:45:41.290Z,17.93
2018-11-23T20:48:09.543Z,19.03
2018-11-23T20:50:37.750Z,17.40
2018-11-23T20:53:05.940Z,18.53
2018-11-23T20:55:34.175Z,18.23
2018-11-23T20:58:02.413Z,19.43
2018-11-23T21:00:30.601Z,17.83
2018-11-23T21:02:59.221Z,18.20
2018-11-23T21:05:27.423Z,23.63
2018-11-23T21:07:55.623Z,18.77
2018-11-23T21:10:24.978Z,18.30
2018-11-23T21:12:53.712Z,17.17
2018-11-23T21:15:27.073Z,17.50
2018-11-23T21:17:55.708Z,19.33
2018-11-23T21:20:23.893Z,18.53
2018-11-23T21:22:52.120Z,18.87
2018-11-23T21:25:20.366Z,18.60
2018-11-23T21:27:48.872Z,18.20
2018-11-23T21:30:18.280Z,17.87
2018-11-23T21:32:46.477Z,17.40
2018-11-23T21:35:14.635Z,17.53
2018-11-23T21:37:42.854Z,18.93
2018-11-23T21:40:11.853Z,15.80
2018-11-23T21:42:40.098Z,17.53
2018-11-23T21:45:13.586Z,18.03
2018-11-23T21:47:41.839Z,16.53
2018-11-23T21:50:15.181Z,19.83
2018-11-23T21:52:43.869Z,17.87
2018-11-23T21:55:16.772Z,20.37
2018-11-23T21:57:45.302Z,18.47
2018-11-23T22:00:14.424Z,16.43
2018-11-23T22:02:43.147Z,16.10
2018-11-23T22:05:11.840Z,18.13
2018-11-23T22:07:40.245Z,18.07
2018-11-23T22:10:13.536Z,17.53
2018-11-23T22:12:41.776Z,16.53
2018-11-23T22:15:12.440Z,19.67
2018-11-23T22:17:40.961Z,18.60
2018-11-23T22:20:12.661Z,18.23
2018-11-23T22:22:40.868Z,17.37
2018-11-23T22:25:12.282Z,19.40
2018-11-23T22:27:40.629Z,17.80
2018-11-23T22:30:14.228Z,18.57
2018-11-23T22:32:42.469Z,18.07
2018-11-23T22:35:11.437Z,17.43
2018-11-23T22:37:39.688Z,17.20
2018-11-23T22:40:11.805Z,18.53
2018-11-23T22:42:40.254Z,19.20
2018-11-23T22:45:09.820Z,18.00
2018-11-23T22:47:38.013Z,15.33
2018-11-23T22:50:10.074Z,17.63
2018-11-23T22:52:38.282Z,17.90
2018-11-23T22:55:08.107Z,16.50
2018-11-23T22:57:36.319Z,18.07
2018-11-23T23:00:09.635Z,20.10
2018-11-23T23:02:37.855Z,19.70
2018-11-23T23:05:06.789Z,19.33
2018-11-23T23:07:35.010Z,19.13
2018-11-23T23:10:03.268Z,17.07
2018-11-23T23:12:31.427Z,19.40
2018-11-23T23:14:59.641Z,19.87
2018-11-23T23:17:27.826Z,17.73
2018-11-23T23:19:56.003Z,19.03
2018-11-23T23:22:24.194Z,18.87
2018-11-23T23:24:52.350Z,18.10
2018-11-23T23:27:20.534Z,16.93
2018-11-23T23:29:55.254Z,18.10
2018-11-23T23:32:23.417Z,18.20
2018-11-23T23:34:51.575Z,18.53
2018-11-23T23:37:19.783Z,17.90
2018-11-23T23:39:47.957Z,17.80
2018-11-23T23:42:16.147Z,17.47
2018-11-23T23:44:44.878Z,17.90
2018-11-23T23:47:13.071Z,16.77
2018-11-23T23:49:41.255Z,18.20
2018-11-23T23:52:09.437Z,18.87
2018-11-23T23:54:37.614Z,19.07
2018-11-23T23:57:05.839Z,17.52
2018-11-23T23:59:34.006Z,16.63
